Aeroporto :
LOGIN :

Iscrizione | Disclaimer

   EN    FR    IT 

 










Sommario :    VFR   VFR Marginale   IFR   IFR Intensivo   IFR Molto Intensivo
Visibilità : 
Base nubi : 
>= 8 km
>= 3000ft
5 / 8 km
1000 / 3000 ft
1500m / 5 km
500 / 1000 ft
800 / 1500m
200 / 500 ft
< 800m
< 200 ft
Simboli :   Temporali  Nebbia  Neve Forte  Precipitazioni Forti  Vento > 20 kt
SIGMETs :   Varie  Temporali  Ghiacco  Turbolenza  Onda orograficha  Ceneri Vulcaniche






- Altitudine del aeroporto : 538 ft
- Codice IATA : TNF


LFPN - Toussus Le Noble

ULTIMO METAR :
  • 291400Z AUTO 26015KT 230V290 9999 BKN037 BKN050 BKN110 10/04 Q0995 TEMPO 24020G45KT 2500 SHRA SCT015 SCT035CB

METARs OBSOLETI :
  • 291330Z AUTO 25017KT 9999 SCT028 BKN036 10/05 Q0995 TEMPO 24020G45KT 2500 SHRA SCT015 SCT035CB
  • 291300Z AUTO 25015KT 9999 SCT023 BKN028 OVC130 09/05 Q0995 TEMPO 24020G45KT 2500 SHRA SCT015 SCT035CB
  • 291230Z AUTO 25015KT 9999 BKN018 BKN023 OVC130 09/05 Q0994 TEMPO 24020G45KT 2500 SHRA SCT015 SCT035CB
  • 291200Z AUTO 26012KT 230V290 9999 BKN017 BKN022 OVC064 08/05 Q0994 BECMG 20020G30KT
  • 291130Z AUTO 26012KT 230V290 9999 FEW018 SCT043 BKN049 07/06 Q0993 BECMG 20020G30KT

TAF TAF LFPN
Valido dal 29 a 12 ore il 29 a 21 ore UTC


291100Z 2912/2921 20020G30KT CAVOK
TEMPO 2914/2917 24020G45KT 2500 SHRA SCT015 SCT035CB
ATIS : +33 1 39 56 54 70



MetMap, La meteo Aeronautica in un colpo d'occhio ! - Copyright ORBIFLY Dicembre 2007 - Disclaimer

ORBIFLY MET'MAP TEAM :

Programmazione e sviluppo : Alexandra Zaïnal
Concezione : Baudouin d'Aumeries
Aiuto per la programmazione : Marc-Olivier Méhu
Supporto tecnico e logistico : Manuel Goepfert
Aiuto per la traduzione : Arnaldo La Scala

Contatto : metmap@orbifly.com




FONTI E CREDITI :

   NOAA